Radiosonde details



Informationen :

Serial : D26020215
Type : Graw DFM
Frequency : 403.010MHz
Launchsite : Tampa Bay Area
Nearest town : Ruskin, US (13.9km)

Altitude (Max) : 23199m at 2026-09-02 00:16:36
Speed (Max) : 54km/h at altitude 12814m

Average speed : 24km/h
Average ascent rate : 5m/s
Average descent rate : -8m/s
Ascent rate (Max) : 9.6m/s
Descent rate (Max): -15.9m/s

First frame :
ARGUS2 at 2026-09-01 23:05:09 at altitude 1259m (OG: 1217m)
Last frame :
ARGUS2 at 2026-09-02 01:04:06 at altitude 1241m (OG: 1199m)

Flighttime : 1h58m57s
Ascent time : 1h11m27s
Descent time : 47m30s
Uptime : -
Killtimer : -

Distance (Straight line distance): 15km

Distance (Route):


Frames : 294


Measurement :

Temperature : 19.1°C
Humidity : 0%
Pressure : 0hPa


Vertical profile (SkewT) :


Elevation profile :



Receiving stations :


Receiver Frames First received Last received
ARGUS2 294 2026-09-01 23:05:09 2026-09-02 01:04:06

Share per receiver :



All frames :


Receiver Date Latitude Longitude Direction Speed Altitude Climb Temperature Humidity Pressure Voltage Killtimer Uptime BKT XDATA
ARGUS22026-09-02 01:04:0627.68247-82.56746238°22km/h1241m-4.8m/s19.1°C0%0hPa0V00:00:0000:00:0000:00:00
ARGUS22026-09-02 01:02:5527.68468-82.56420230°18km/h1597m-5.8m/s17.2°C0%0hPa0V00:00:0000:00:0000:00:00
ARGUS22026-09-02 01:02:3527.68534-82.56337232°20km/h1703m-6.1m/s16.9°C0%0hPa0V00:00:0000:00:0000:00:00
ARGUS22026-09-02 01:02:1427.68595-82.56258224°16km/h1804m-5.6m/s16.5°C0%0hPa0V00:00:0000:00:0000:00:00
ARGUS22026-09-02 00:59:2127.69250-82.55382240°29km/h2729m-5.2m/s12.3°C0%0hPa0V00:00:0000:00:0000:00:00
ARGUS22026-09-02 00:58:5927.69338-82.55244232°29km/h2843m-5.9m/s11.5°C0%0hPa0V00:00:0000:00:0000:00:00
ARGUS22026-09-02 00:58:3927.69432-82.55122229°27km/h2953m-5.5m/s11.0°C0%0hPa0V00:00:0000:00:0000:00:00
ARGUS22026-09-02 00:58:1927.69533-82.54997230°29km/h3066m-5.8m/s10.2°C0%0hPa0V00:00:0000:00:0000:00:00
ARGUS22026-09-02 00:57:5827.69632-82.54868233°31km/h3176m-6.1m/s9.5°C0%0hPa0V00:00:0000:00:0000:00:00
ARGUS22026-09-02 00:57:3727.69724-82.54741231°26km/h3293m-5.9m/s9.3°C0%0hPa0V00:00:0000:00:0000:00:00
ARGUS22026-09-02 00:57:1827.69805-82.54632231°26km/h3407m-6.0m/s8.6°C0%0hPa0V00:00:0000:00:0000:00:00
ARGUS22026-09-02 00:56:5627.69887-82.54519231°24km/h3529m-6.4m/s7.8°C0%0hPa0V00:00:0000:00:0000:00:00
ARGUS22026-09-02 00:56:3627.69962-82.54416233°22km/h3643m-5.9m/s7.1°C0%0hPa0V00:00:0000:00:0000:00:00
ARGUS22026-09-02 00:56:1627.70022-82.54306248°22km/h3763m-6.1m/s6.5°C0%0hPa0V00:00:0000:00:0000:00:00
ARGUS22026-09-02 00:55:5527.70057-82.54196250°22km/h3885m-6.3m/s5.5°C0%0hPa0V00:00:0000:00:0000:00:00
ARGUS22026-09-02 00:55:3527.70100-82.54076244°22km/h4006m-6.2m/s4.2°C0%0hPa0V00:00:0000:00:0000:00:00
ARGUS22026-09-02 00:55:1427.70160-82.53969240°20km/h4135m-6.5m/s3.6°C0%0hPa0V00:00:0000:00:0000:00:00
ARGUS22026-09-02 00:54:5427.70218-82.53892222°15km/h4270m-6.7m/s2.9°C0%0hPa0V00:00:0000:00:0000:00:00
ARGUS22026-09-02 00:54:3327.70267-82.53838233°13km/h4405m-6.8m/s2.1°C0%0hPa0V00:00:0000:00:0000:00:00
ARGUS22026-09-02 00:53:5227.70332-82.53699232°18km/h4661m-6.8m/s1.0°C0%0hPa0V00:00:0000:00:0000:00:00
ARGUS22026-09-02 00:52:3427.70510-82.53419237°13km/h5165m-6.1m/s-2.4°C0%0hPa0V00:00:0000:00:0000:00:00
ARGUS22026-09-02 00:52:1327.70548-82.53354238°13km/h5298m-6.5m/s-3.1°C0%0hPa0V00:00:0000:00:0000:00:00
ARGUS22026-09-02 00:51:5327.70586-82.53283241°15km/h5430m-6.8m/s-3.9°C0%0hPa0V00:00:0000:00:0000:00:00
ARGUS22026-09-02 00:51:3227.70626-82.53216226°11km/h5563m-6.1m/s-4.8°C0%0hPa0V00:00:0000:00:0000:00:00
ARGUS22026-09-02 00:51:1127.70673-82.53176215°13km/h5691m-6.3m/s-5.4°C0%0hPa0V00:00:0000:00:0000:00:00
ARGUS22026-09-02 00:50:5127.70721-82.53132228°11km/h5827m-6.7m/s-6.1°C0%0hPa0V00:00:0000:00:0000:00:00
ARGUS22026-09-02 00:50:3027.70756-82.53087235°11km/h5955m-6.9m/s-6.9°C0%0hPa0V00:00:0000:00:0000:00:00
ARGUS22026-09-02 00:50:0927.70808-82.53056203°15km/h6142m-10.8m/s-7.7°C0%0hPa0V00:00:0000:00:0000:00:00
ARGUS22026-09-02 00:49:4927.70903-82.53024183°15km/h6319m-6.5m/s-8.5°C0%0hPa0V00:00:0000:00:0000:00:00
ARGUS22026-09-02 00:49:2927.70986-82.53044161°18km/h6484m-7.4m/s-9.5°C0%0hPa0V00:00:0000:00:0000:00:00
ARGUS22026-09-02 00:49:0727.71080-82.53114144°24km/h6697m-9.2m/s-10.6°C0%0hPa0V00:00:0000:00:0000:00:00
ARGUS22026-09-02 00:48:4627.71198-82.53225133°29km/h6925m-9.2m/s-12.0°C0%0hPa0V00:00:0000:00:0000:00:00
ARGUS22026-09-02 00:48:2527.71299-82.53359129°29km/h7102m-8.4m/s-13.1°C0%0hPa0V00:00:0000:00:0000:00:00
ARGUS22026-09-02 00:48:0527.71405-82.53503130°29km/h7281m-8.5m/s-14.1°C0%0hPa0V00:00:0000:00:0000:00:00
ARGUS22026-09-02 00:47:4427.71498-82.53635129°29km/h7454m-8.4m/s-15.1°C0%0hPa0V00:00:0000:00:0000:00:00
ARGUS22026-09-02 00:47:2427.71584-82.53767129°26km/h7640m-9.1m/s-16.4°C0%0hPa0V00:00:0000:00:0000:00:00
ARGUS22026-09-02 00:47:0427.71664-82.53880130°24km/h7823m-9.2m/s-17.5°C0%0hPa0V00:00:0000:00:0000:00:00
ARGUS22026-09-02 00:46:4327.71733-82.53988125°20km/h8013m-8.6m/s-18.7°C0%0hPa0V00:00:0000:00:0000:00:00
ARGUS22026-09-02 00:46:2227.71787-82.54059143°15km/h8192m-9.6m/s-19.9°C0%0hPa0V00:00:0000:00:0000:00:00
ARGUS22026-09-02 00:45:4127.71932-82.54134174°22km/h8555m-9.8m/s-22.5°C0%0hPa0V00:00:0000:00:0000:00:00
ARGUS22026-09-02 00:45:2127.72073-82.54128189°27km/h8739m-10.6m/s-23.8°C0%0hPa0V00:00:0000:00:0000:00:00
ARGUS22026-09-02 00:45:0027.72198-82.54086206°22km/h8947m-9.5m/s-25.1°C0%0hPa0V00:00:0000:00:0000:00:00
ARGUS22026-09-02 00:44:3927.72292-82.54040207°16km/h9162m-13.2m/s-26.5°C0%0hPa0V00:00:0000:00:0000:00:00
ARGUS22026-09-02 00:43:5827.72419-82.53930236°16km/h9620m-13.6m/s-29.7°C0%0hPa0V00:00:0000:00:0000:00:00
ARGUS22026-09-02 00:43:3727.72480-82.53863212°16km/h9820m-8.0m/s-31.3°C0%0hPa0V00:00:0000:00:0000:00:00
ARGUS22026-09-02 00:42:5727.72551-82.53716276°7km/h10181m-8.8m/s-33.6°C0%0hPa0V00:00:0000:00:0000:00:00
ARGUS22026-09-02 00:42:3627.72543-82.53682289°9km/h10358m-8.7m/s-34.9°C0%0hPa0V00:00:0000:00:0000:00:00
ARGUS22026-09-02 00:42:1527.72535-82.53620266°11km/h10549m-9.3m/s-36.4°C0%0hPa0V00:00:0000:00:0000:00:00
ARGUS22026-09-02 00:41:5527.72536-82.53558279°15km/h10734m-9.8m/s-37.9°C0%0hPa0V00:00:0000:00:0000:00:00
ARGUS22026-09-02 00:41:3527.72499-82.53505331°15km/h10928m-9.8m/s-39.1°C0%0hPa0V00:00:0000:00:0000:00:00
ARGUS22026-09-02 00:41:1427.72439-82.53469334°13km/h11118m-9.6m/s-40.5°C0%0hPa0V00:00:0000:00:0000:00:00
ARGUS22026-09-02 00:40:5427.72383-82.53436338°13km/h11322m-9.9m/s-42.2°C0%0hPa0V00:00:0000:00:0000:00:00
ARGUS22026-09-02 00:40:3327.72335-82.53410343°11km/h11528m-9.7m/s-44.0°C0%0hPa0V00:00:0000:00:0000:00:00
ARGUS22026-09-02 00:40:1327.72262-82.53379336°13km/h11718m-8.5m/s-45.6°C0%0hPa0V00:00:0000:00:0000:00:00
ARGUS22026-09-02 00:39:5127.72182-82.53353350°15km/h11932m-10.7m/s-47.3°C0%0hPa0V00:00:0000:00:0000:00:00
ARGUS22026-09-02 00:39:3127.72102-82.5334015km/h12129m-10.8m/s-49.0°C0%0hPa0V00:00:0000:00:0000:00:00
ARGUS22026-09-02 00:39:1127.72023-82.5334928°16km/h12371m-11.6m/s-50.8°C0%0hPa0V00:00:0000:00:0000:00:00
ARGUS22026-09-02 00:38:5027.71944-82.5341842°24km/h12558m-9.6m/s-52.4°C0%0hPa0V00:00:0000:00:0000:00:00
ARGUS22026-09-02 00:38:2927.71853-82.5349241°24km/h12751m-8.5m/s-54.1°C0%0hPa0V00:00:0000:00:0000:00:00
ARGUS22026-09-02 00:38:0927.71764-82.5356542°15km/h12938m-9.3m/s-55.7°C0%0hPa0V00:00:0000:00:0000:00:00
ARGUS22026-09-02 00:37:4827.71673-82.5362928°22km/h13131m-8.7m/s-57.3°C0%0hPa0V00:00:0000:00:0000:00:00
ARGUS22026-09-02 00:37:2827.71569-82.5368021°22km/h13297m-7.3m/s-58.7°C0%0hPa0V00:00:0000:00:0000:00:00
ARGUS22026-09-02 00:37:0827.71450-82.5372315°24km/h13442m-6.5m/s-59.9°C0%0hPa0V00:00:0000:00:0000:00:00
ARGUS22026-09-02 00:36:4727.71342-82.5376417°20km/h13572m-6.6m/s-61.1°C0%0hPa0V00:00:0000:00:0000:00:00
ARGUS22026-09-02 00:36:2727.71239-82.5381427°24km/h13743m-8.8m/s-62.7°C0%0hPa0V00:00:0000:00:0000:00:00
ARGUS22026-09-02 00:36:0627.71136-82.5386330°22km/h13914m-7.5m/s-64.2°C0%0hPa0V00:00:0000:00:0000:00:00
ARGUS22026-09-02 00:35:4627.71037-82.5393434°18km/h14072m-7.1m/s-65.6°C0%0hPa0V00:00:0000:00:0000:00:00
ARGUS22026-09-02 00:35:2627.70959-82.5399231°18km/h14209m-6.3m/s-66.7°C0%0hPa0V00:00:0000:00:0000:00:00
ARGUS22026-09-02 00:35:0527.70863-82.5404319°18km/h14346m-6.1m/s-68.0°C0%0hPa0V00:00:0000:00:0000:00:00
ARGUS22026-09-02 00:34:4327.70759-82.5408226km/h14478m-6.5m/s-69.0°C0%0hPa0V00:00:0000:00:0000:00:00
ARGUS22026-09-02 00:34:2327.70627-82.5410327km/h14610m-6.4m/s-69.9°C0%0hPa0V00:00:0000:00:0000:00:00
ARGUS22026-09-02 00:34:0227.70483-82.5410826km/h14753m-7.2m/s-70.6°C0%0hPa0V00:00:0000:00:0000:00:00
ARGUS22026-09-02 00:33:4227.70365-82.5411311°15km/h14889m-6.4m/s-70.5°C0%0hPa0V00:00:0000:00:0000:00:00
ARGUS22026-09-02 00:33:2127.70287-82.5413126°11km/h15023m-6.7m/s-70.8°C0%0hPa0V00:00:0000:00:0000:00:00
ARGUS22026-09-02 00:33:0127.70267-82.541400km/h15157m-7.0m/s-70.9°C0%0hPa0V00:00:0000:00:0000:00:00
ARGUS22026-09-02 00:32:4127.70260-82.54111326°15km/h15299m-6.7m/s-68.2°C0%0hPa0V00:00:0000:00:0000:00:00
ARGUS22026-09-02 00:32:2027.70213-82.541029km/h15437m-6.5m/s-66.8°C0%0hPa0V00:00:0000:00:0000:00:00
ARGUS22026-09-02 00:32:0027.70164-82.541015km/h15582m-7.1m/s-67.0°C0%0hPa0V00:00:0000:00:0000:00:00
ARGUS22026-09-02 00:31:3927.70131-82.5412166°4km/h15733m-7.4m/s-66.8°C0%0hPa0V00:00:0000:00:0000:00:00
ARGUS22026-09-02 00:31:1927.70141-82.54148138°11km/h15895m-7.2m/s-65.4°C0%0hPa0V00:00:0000:00:0000:00:00
ARGUS22026-09-02 00:30:5827.70169-82.54162192°5km/h16012m-6.1m/s-65.7°C0%0hPa0V00:00:0000:00:0000:00:00
ARGUS22026-09-02 00:30:3827.70183-82.54169327°4km/h16156m-7.4m/s-66.4°C0%0hPa0V00:00:0000:00:0000:00:00
ARGUS22026-09-02 00:30:1827.70180-82.54128271°13km/h16308m-7.9m/s-66.2°C0%0hPa0V00:00:0000:00:0000:00:00
ARGUS22026-09-02 00:29:5727.70168-82.54054291°9km/h16481m-8.5m/s-65.3°C0%0hPa0V00:00:0000:00:0000:00:00
ARGUS22026-09-02 00:29:3527.70160-82.54018241°5km/h16653m-8.2m/s-66.5°C0%0hPa0V00:00:0000:00:0000:00:00
ARGUS22026-09-02 00:29:1527.70198-82.53993207°15km/h16820m-8.3m/s-67.5°C0%0hPa0V00:00:0000:00:0000:00:00
ARGUS22026-09-02 00:28:5427.70270-82.53948206°16km/h16997m-8.3m/s-68.1°C0%0hPa0V00:00:0000:00:0000:00:00
ARGUS22026-09-02 00:28:3427.70346-82.53929178°16km/h17180m-9.7m/s-69.3°C0%0hPa0V00:00:0000:00:0000:00:00
ARGUS22026-09-02 00:28:1327.70414-82.53919202°11km/h17374m-9.3m/s-69.1°C0%0hPa0V00:00:0000:00:0000:00:00
ARGUS22026-09-02 00:27:5327.70501-82.53861220°27km/h17554m-8.4m/s-69.1°C0%0hPa0V00:00:0000:00:0000:00:00
ARGUS22026-09-02 00:27:3327.70632-82.53741218°27km/h17724m-8.1m/s-69.3°C0%0hPa0V00:00:0000:00:0000:00:00
ARGUS22026-09-02 00:27:1227.70726-82.53687192°20km/h17890m-8.0m/s-68.3°C0%0hPa0V00:00:0000:00:0000:00:00
ARGUS22026-09-02 00:26:5227.70827-82.53640196°27km/h18066m-12.2m/s-67.9°C0%0hPa0V00:00:0000:00:0000:00:00
ARGUS22026-09-02 00:26:1127.71012-82.53506227°13km/h18423m-9.9m/s-64.7°C0%0hPa0V00:00:0000:00:0000:00:00
ARGUS22026-09-02 00:25:5027.71059-82.53442219°24km/h18590m-8.9m/s-62.6°C0%0hPa0V00:00:0000:00:0000:00:00
ARGUS22026-09-02 00:25:3027.71115-82.53297257°27km/h18771m-8.3m/s-61.6°C0%0hPa0V00:00:0000:00:0000:00:00
ARGUS22026-09-02 00:25:0927.71125-82.53159273°22km/h18908m-6.1m/s-62.6°C0%0hPa0V00:00:0000:00:0000:00:00
ARGUS22026-09-02 00:24:4927.71107-82.53036288°26km/h19042m-7.7m/s-62.5°C0%0hPa0V00:00:0000:00:0000:00:00
ARGUS22026-09-02 00:24:2827.71087-82.52893271°26km/h19172m-5.9m/s-62.7°C0%0hPa0V00:00:0000:00:0000:00:00
ARGUS22026-09-02 00:24:0827.71075-82.52728276°31km/h19306m-7.0m/s-63.0°C0%0hPa0V00:00:0000:00:0000:00:00
ARGUS22026-09-02 00:23:4627.71061-82.52563284°27km/h19451m-7.3m/s-63.0°C0%0hPa0V00:00:0000:00:0000:00:00
ARGUS22026-09-02 00:23:2627.71043-82.52411276°26km/h19598m-8.1m/s-63.4°C0%0hPa0V00:00:0000:00:0000:00:00
ARGUS22026-09-02 00:23:0527.71049-82.52268304°20km/h19794m-9.4m/s-63.2°C0%0hPa0V00:00:0000:00:0000:00:00
ARGUS22026-09-02 00:22:2427.71144-82.51996237°44km/h20203m-8.7m/s-61.6°C0%0hPa0V00:00:0000:00:0000:00:00
ARGUS22026-09-02 00:22:0427.71194-82.51801255°37km/h20376m-8.4m/s-61.2°C0%0hPa0V00:00:0000:00:0000:00:00
ARGUS22026-09-02 00:21:4427.71208-82.51622281°29km/h20535m-5.7m/s-61.5°C0%0hPa0V00:00:0000:00:0000:00:00
ARGUS22026-09-02 00:21:2327.71165-82.51503267°15km/h20670m-7.6m/s-61.6°C0%0hPa0V00:00:0000:00:0000:00:00
ARGUS22026-09-02 00:21:0227.71149-82.51443261°22km/h20809m-6.9m/s-60.5°C0%0hPa0V00:00:0000:00:0000:00:00
ARGUS22026-09-02 00:20:4227.71138-82.51369235°27km/h20946m-9.3m/s-60.7°C0%0hPa0V00:00:0000:00:0000:00:00
ARGUS22026-09-02 00:20:2227.71103-82.51242320°31km/h21078m-7.1m/s-61.0°C0%0hPa0V00:00:0000:00:0000:00:00
ARGUS22026-09-02 00:20:0127.71075-82.51147270°18km/h21238m-7.5m/s-61.3°C0%0hPa0V00:00:0000:00:0000:00:00
ARGUS22026-09-02 00:19:4027.71082-82.51069237°9km/h21387m-7.4m/s-62.0°C0%0hPa0V00:00:0000:00:0000:00:00
ARGUS22026-09-02 00:19:2027.71127-82.51026153°13km/h21548m-10.1m/s-62.2°C0%0hPa0V00:00:0000:00:0000:00:00
ARGUS22026-09-02 00:19:0027.71169-82.50936298°18km/h21724m-8.5m/s-61.2°C0%0hPa0V00:00:0000:00:0000:00:00
ARGUS22026-09-02 00:18:3827.71106-82.50801313°22km/h21996m-15.9m/s-61.1°C0%0hPa0V00:00:0000:00:0000:00:00
ARGUS22026-09-02 00:18:1827.71150-82.50719336°26km/h22261m-9.1m/s-60.5°C0%0hPa0V00:00:0000:00:0000:00:00
ARGUS22026-09-02 00:17:5727.71152-82.50675319°24km/h22448m-8.1m/s-61.1°C0%0hPa0V00:00:0000:00:0000:00:00
ARGUS22026-09-02 00:17:3827.71133-82.50546173°9km/h22621m-8.8m/s-60.7°C0%0hPa0V00:00:0000:00:0000:00:00
ARGUS22026-09-02 00:16:5627.71227-82.50240262°53km/h23006m-12.8m/s-59.5°C0%0hPa0V00:00:0000:00:0000:00:00
ARGUS22026-09-02 00:16:3627.71373-82.50023223°42km/h23199m-15.5m/s-59.1°C0%0hPa0V00:00:0000:00:0000:00:00
ARGUS22026-09-02 00:15:5427.71834-82.49576221°42km/h23154m9.6m/s-58.8°C0%0hPa0V00:00:0000:00:0000:00:00
ARGUS22026-09-02 00:15:3427.71956-82.49414277°33km/h23020m7.1m/s-58.4°C0%0hPa0V00:00:0000:00:0000:00:00
ARGUS22026-09-02 00:15:1327.72039-82.49190253°51km/h22876m6.4m/s-58.9°C0%0hPa0V00:00:0000:00:0000:00:00
ARGUS22026-09-02 00:14:5327.72114-82.49030242°37km/h22740m7.2m/s-59.2°C0%0hPa0V00:00:0000:00:0000:00:00
ARGUS22026-09-02 00:14:3327.72179-82.48936277°20km/h22604m7.3m/s-59.2°C0%0hPa0V00:00:0000:00:0000:00:00
ARGUS22026-09-02 00:14:1227.72198-82.48833242°31km/h22491m4.4m/s-58.9°C0%0hPa0V00:00:0000:00:0000:00:00
ARGUS22026-09-02 00:13:5227.72210-82.48710293°13km/h22379m4.9m/s-59.5°C0%0hPa0V00:00:0000:00:0000:00:00
ARGUS22026-09-02 00:13:3027.72189-82.48613300°2km/h22278m5.4m/s-59.8°C0%0hPa0V00:00:0000:00:0000:00:00
ARGUS22026-09-02 00:13:1027.72186-82.48567256°11km/h22195m2.6m/s-59.7°C0%0hPa0V00:00:0000:00:0000:00:00
ARGUS22026-09-02 00:12:2927.72262-82.48373253°24km/h22020m3.3m/s-61.4°C0%0hPa0V00:00:0000:00:0000:00:00
ARGUS22026-09-02 00:12:0927.72248-82.48225298°40km/h21931m6.9m/s-62.0°C0%0hPa0V00:00:0000:00:0000:00:00
ARGUS22026-09-02 00:11:4827.72193-82.48073256°37km/h21838m5.1m/s-61.8°C0%0hPa0V00:00:0000:00:0000:00:00
ARGUS22026-09-02 00:11:2727.72195-82.47908259°35km/h21737m2.6m/s-61.9°C0%0hPa0V00:00:0000:00:0000:00:00
ARGUS22026-09-02 00:11:0727.72246-82.47820173°27km/h21634m6.1m/s-62.4°C0%0hPa0V00:00:0000:00:0000:00:00
ARGUS22026-09-02 00:10:4727.72333-82.47723265°40km/h21519m4.6m/s-62.5°C0%0hPa0V00:00:0000:00:0000:00:00
ARGUS22026-09-02 00:10:2627.72371-82.47648237°15km/h21400m6.2m/s-62.1°C0%0hPa0V00:00:0000:00:0000:00:00
ARGUS22026-09-02 00:10:0627.72377-82.47500318°26km/h21268m6.7m/s-61.4°C0%0hPa0V00:00:0000:00:0000:00:00
ARGUS22026-09-02 00:09:4527.72364-82.47366291°38km/h21129m7.3m/s-60.7°C0%0hPa0V00:00:0000:00:0000:00:00
ARGUS22026-09-02 00:09:2827.72315-82.47218281°37km/h20986m6.5m/s-60.0°C0%0hPa0V00:00:0000:00:0000:00:00
ARGUS22026-09-02 00:09:0427.72262-82.47063277°38km/h20843m8.0m/s-59.3°C0%0hPa0V00:00:0000:00:0000:00:00
ARGUS22026-09-02 00:08:4427.72235-82.46915310°26km/h20710m4.5m/s-58.5°C0%0hPa0V00:00:0000:00:0000:00:00
ARGUS22026-09-02 00:08:2327.72205-82.46785255°27km/h20585m5.9m/s-57.8°C0%0hPa0V00:00:0000:00:0000:00:00
ARGUS22026-09-02 00:08:0227.72166-82.46693314°15km/h20484m4.9m/s-57.7°C0%0hPa0V00:00:0000:00:0000:00:00
ARGUS22026-09-02 00:07:4127.72098-82.46596301°29km/h20397m4.1m/s-57.8°C0%0hPa0V00:00:0000:00:0000:00:00
ARGUS22026-09-02 00:07:2227.72073-82.46490315°11km/h20324m3.8m/s-58.5°C0%0hPa0V00:00:0000:00:0000:00:00
ARGUS22026-09-02 00:07:0027.72029-82.46362266°37km/h20253m3.3m/s-59.5°C0%0hPa0V00:00:0000:00:0000:00:00
ARGUS22026-09-02 00:06:4027.72046-82.46163272°33km/h20187m3.7m/s-59.8°C0%0hPa0V00:00:0000:00:0000:00:00
ARGUS22026-09-02 00:06:2027.72145-82.45934224°49km/h20109m4.3m/s-62.2°C0%0hPa0V00:00:0000:00:0000:00:00
ARGUS22026-09-02 00:05:5927.72227-82.45762269°49km/h20006m6.7m/s-63.2°C0%0hPa0V00:00:0000:00:0000:00:00
ARGUS22026-09-02 00:05:3927.72199-82.45576272°44km/h19890m5.5m/s-63.2°C0%0hPa0V00:00:0000:00:0000:00:00
ARGUS22026-09-02 00:05:1827.72184-82.45403300°40km/h19762m7.8m/s-63.3°C0%0hPa0V00:00:0000:00:0000:00:00
ARGUS22026-09-02 00:04:5827.72216-82.45229245°44km/h19626m5.1m/s-63.4°C0%0hPa0V00:00:0000:00:0000:00:00
ARGUS22026-09-02 00:04:3827.72280-82.45098288°35km/h19491m7.8m/s-63.0°C0%0hPa0V00:00:0000:00:0000:00:00
ARGUS22026-09-02 00:04:1727.72317-82.44918219°37km/h19365m4.4m/s-62.7°C0%0hPa0V00:00:0000:00:0000:00:00
ARGUS22026-09-02 00:04:0227.72360-82.44759246°40km/h19251m4.8m/s-62.5°C0%0hPa0V00:00:0000:00:0000:00:00
ARGUS22026-09-02 00:03:3827.72422-82.44601180°26km/h19142m5.4m/s-62.6°C0%0hPa0V00:00:0000:00:0000:00:00
ARGUS22026-09-02 00:03:2227.72459-82.44466263°20km/h19038m4.5m/s-63.7°C0%0hPa0V00:00:0000:00:0000:00:00
ARGUS22026-09-02 00:03:1027.72485-82.44311243°40km/h18954m5.2m/s-63.1°C0%0hPa0V00:00:0000:00:0000:00:00
ARGUS22026-09-02 00:02:4227.72526-82.44149235°13km/h18854m8.5m/s-62.6°C0%0hPa0V00:00:0000:00:0000:00:00
ARGUS22026-09-02 00:02:2027.72617-82.43983241°49km/h18753m5.2m/s-63.7°C0%0hPa0V00:00:0000:00:0000:00:00
ARGUS22026-09-02 00:02:0027.72712-82.43860215°18km/h18654m5.3m/s-65.4°C0%0hPa0V00:00:0000:00:0000:00:00
ARGUS22026-09-02 00:01:4127.72749-82.43780241°11km/h18559m6.1m/s-65.8°C0%0hPa0V00:00:0000:00:0000:00:00
ARGUS22026-09-02 00:01:1727.72775-82.43678247°35km/h18443m6.3m/s-66.3°C0%0hPa0V00:00:0000:00:0000:00:00
ARGUS22026-09-02 00:00:5127.72831-82.43544247°24km/h18333m3.7m/s-67.4°C0%0hPa0V00:00:0000:00:0000:00:00
ARGUS22026-09-02 00:00:3527.72934-82.43414215°35km/h18224m3.9m/s-68.5°C0%0hPa0V00:00:0000:00:0000:00:00
ARGUS22026-09-02 00:00:1427.73012-82.43341191°29km/h18124m7.4m/s-68.4°C0%0hPa0V00:00:0000:00:0000:00:00
ARGUS22026-09-01 23:59:5027.73068-82.43255253°31km/h18023m5.1m/s-68.0°C0%0hPa0V00:00:0000:00:0000:00:00
ARGUS22026-09-01 23:59:2927.73107-82.43162266°15km/h17934m4.4m/s-68.0°C0%0hPa0V00:00:0000:00:0000:00:00
ARGUS22026-09-01 23:59:0927.73156-82.43082216°27km/h17849m4.1m/s-68.2°C0%0hPa0V00:00:0000:00:0000:00:00
ARGUS22026-09-01 23:58:4827.73251-82.43031193°29km/h17771m4.9m/s-68.5°C0%0hPa0V00:00:0000:00:0000:00:00
ARGUS22026-09-01 23:58:2827.73351-82.42963226°15km/h17686m4.0m/s-68.3°C0%0hPa0V00:00:0000:00:0000:00:00
ARGUS22026-09-01 23:58:0727.73447-82.42869206°37km/h17610m4.8m/s-68.0°C0%0hPa0V00:00:0000:00:0000:00:00
ARGUS22026-09-01 23:57:4727.73608-82.42762198°37km/h17526m3.4m/s-68.2°C0%0hPa0V00:00:0000:00:0000:00:00
ARGUS22026-09-01 23:57:2527.73755-82.42666212°27km/h17437m4.5m/s-67.8°C0%0hPa0V00:00:0000:00:0000:00:00
ARGUS22026-09-01 23:57:0527.73866-82.42591220°31km/h17350m3.8m/s-67.4°C0%0hPa0V00:00:0000:00:0000:00:00
ARGUS22026-09-01 23:56:4427.73971-82.42539169°24km/h17249m6.1m/s-66.7°C0%0hPa0V00:00:0000:00:0000:00:00
ARGUS22026-09-01 23:56:2427.74054-82.42503245°18km/h17151m4.4m/s-66.3°C0%0hPa0V00:00:0000:00:0000:00:00
ARGUS22026-09-01 23:56:0327.74100-82.42496195°5km/h17043m6.4m/s-66.8°C0%0hPa0V00:00:0000:00:0000:00:00
ARGUS22026-09-01 23:55:4327.74125-82.42484163°15km/h16938m5.0m/s-66.8°C0%0hPa0V00:00:0000:00:0000:00:00
ARGUS22026-09-01 23:55:2327.74154-82.42467197°13km/h16833m5.5m/s-66.3°C0%0hPa0V00:00:0000:00:0000:00:00
ARGUS22026-09-01 23:55:0227.74182-82.42439239°18km/h16734m4.0m/s-65.8°C0%0hPa0V00:00:0000:00:0000:00:00
ARGUS22026-09-01 23:54:4227.74227-82.42390239°15km/h16643m5.1m/s-65.2°C0%0hPa0V00:00:0000:00:0000:00:00
ARGUS22026-09-01 23:54:2127.74256-82.42320293°24km/h16558m5.2m/s-65.2°C0%0hPa0V00:00:0000:00:0000:00:00
ARGUS22026-09-01 23:54:0027.74236-82.42240298°13km/h16471m3.9m/s-64.9°C0%0hPa0V00:00:0000:00:0000:00:00
ARGUS22026-09-01 23:53:4027.74199-82.42172315°24km/h16394m4.0m/s-65.2°C0%0hPa0V00:00:0000:00:0000:00:00
ARGUS22026-09-01 23:53:2027.74162-82.42046281°22km/h16314m3.5m/s-66.5°C0%0hPa0V00:00:0000:00:0000:00:00
ARGUS22026-09-01 23:52:5827.74119-82.41958247°16km/h16232m4.4m/s-67.4°C0%0hPa0V00:00:0000:00:0000:00:00
ARGUS22026-09-01 23:52:3827.74123-82.41867325°7km/h16133m3.5m/s-70.1°C0%0hPa0V00:00:0000:00:0000:00:00
ARGUS22026-09-01 23:52:1727.74104-82.41869357°16km/h16038m4.4m/s-70.0°C0%0hPa0V00:00:0000:00:0000:00:00
ARGUS22026-09-01 23:51:5727.74101-82.41892150°11km/h15943m4.7m/s-69.9°C0%0hPa0V00:00:0000:00:0000:00:00
ARGUS22026-09-01 23:51:3727.74128-82.41908112°4km/h15846m4.5m/s-69.7°C0%0hPa0V00:00:0000:00:0000:00:00
ARGUS22026-09-01 23:51:1627.74163-82.41939197°16km/h15757m3.7m/s-69.0°C0%0hPa0V00:00:0000:00:0000:00:00
ARGUS22026-09-01 23:50:5527.74212-82.41966134°9km/h15669m4.1m/s-68.3°C0%0hPa0V00:00:0000:00:0000:00:00
ARGUS22026-09-01 23:50:3527.74245-82.42004150°22km/h15594m4.2m/s-67.9°C0%0hPa0V00:00:0000:00:0000:00:00
ARGUS22026-09-01 23:50:1427.74272-82.4206096°20km/h15514m3.1m/s-67.9°C0%0hPa0V00:00:0000:00:0000:00:00
ARGUS22026-09-01 23:49:5427.74251-82.420959km/h15438m5.7m/s-67.9°C0%0hPa0V00:00:0000:00:0000:00:00
ARGUS22026-09-01 23:49:3427.74191-82.42087305°22km/h15352m3.6m/s-70.3°C0%0hPa0V00:00:0000:00:0000:00:00
ARGUS22026-09-01 23:49:1327.74145-82.41999187°20km/h15274m1.6m/s-71.7°C0%0hPa0V00:00:0000:00:0000:00:00
ARGUS22026-09-01 23:48:5327.74058-82.4199517°15km/h15176m3.9m/s-72.5°C0%0hPa0V00:00:0000:00:0000:00:00
ARGUS22026-09-01 23:48:3227.73948-82.41995342°33km/h15092m3.6m/s-72.0°C0%0hPa0V00:00:0000:00:0000:00:00
ARGUS22026-09-01 23:48:1227.73805-82.41966326°35km/h14993m7.1m/s-71.6°C0%0hPa0V00:00:0000:00:0000:00:00
ARGUS22026-09-01 23:47:5027.73648-82.4191826km/h14876m4.4m/s-71.1°C0%0hPa0V00:00:0000:00:0000:00:00
ARGUS22026-09-01 23:47:3027.73475-82.4187922km/h14749m6.9m/s-70.4°C0%0hPa0V00:00:0000:00:0000:00:00
ARGUS22026-09-01 23:47:1327.73306-82.4185220°53km/h14625m6.1m/s-69.7°C0%0hPa0V00:00:0000:00:0000:00:00
ARGUS22026-09-01 23:46:4927.73157-82.4183625°33km/h14497m4.6m/s-68.5°C0%0hPa0V00:00:0000:00:0000:00:00
ARGUS22026-09-01 23:46:2827.73005-82.41808326°46km/h14380m7.9m/s-67.5°C0%0hPa0V00:00:0000:00:0000:00:00
ARGUS22026-09-01 23:46:0827.72828-82.41808341°11km/h14256m8.1m/s-66.7°C0%0hPa0V00:00:0000:00:0000:00:00
ARGUS22026-09-01 23:45:4727.72662-82.41833352°31km/h14143m3.6m/s-65.7°C0%0hPa0V00:00:0000:00:0000:00:00
ARGUS22026-09-01 23:45:2727.72502-82.4186518°49km/h14047m5.3m/s-64.9°C0%0hPa0V00:00:0000:00:0000:00:00
ARGUS22026-09-01 23:45:0727.72321-82.4189421°27km/h13956m6.6m/s-64.1°C0%0hPa0V00:00:0000:00:0000:00:00
ARGUS22026-09-01 23:44:4627.72151-82.41888353°35km/h13852m4.8m/s-63.2°C0%0hPa0V00:00:0000:00:0000:00:00
ARGUS22026-09-01 23:44:2627.71964-82.41885346°44km/h13760m5.3m/s-62.4°C0%0hPa0V00:00:0000:00:0000:00:00
ARGUS22026-09-01 23:44:0527.71789-82.4187010°40km/h13675m4.0m/s-61.6°C0%0hPa0V00:00:0000:00:0000:00:00
ARGUS22026-09-01 23:43:4527.71605-82.41842353°27km/h13576m5.0m/s-60.8°C0%0hPa0V00:00:0000:00:0000:00:00
ARGUS22026-09-01 23:43:2427.71418-82.4182123°35km/h13485m5.7m/s-60.1°C0%0hPa0V00:00:0000:00:0000:00:00
ARGUS22026-09-01 23:43:0427.71228-82.41810346°35km/h13378m5.9m/s-59.3°C0%0hPa0V00:00:0000:00:0000:00:00
ARGUS22026-09-01 23:42:4227.71049-82.41796332°46km/h13281m5.0m/s-58.5°C0%0hPa0V00:00:0000:00:0000:00:00
ARGUS22026-09-01 23:42:2227.70870-82.41776354°49km/h13188m3.9m/s-57.7°C0%0hPa0V00:00:0000:00:0000:00:00
ARGUS22026-09-01 23:42:0227.70681-82.4176137km/h13095m4.5m/s-56.9°C0%0hPa0V00:00:0000:00:0000:00:00
ARGUS22026-09-01 23:41:4127.70508-82.41743350°40km/h13005m4.4m/s-56.3°C0%0hPa0V00:00:0000:00:0000:00:00
ARGUS22026-09-01 23:41:2127.70316-82.41737351°38km/h12907m3.6m/s-55.4°C0%0hPa0V00:00:0000:00:0000:00:00
ARGUS22026-09-01 23:41:0027.70135-82.41735358°53km/h12814m4.8m/s-54.7°C0%0hPa0V00:00:0000:00:0000:00:00
ARGUS22026-09-01 23:40:3927.69941-82.41714353°37km/h12720m5.3m/s-54.0°C0%0hPa0V00:00:0000:00:0000:00:00
ARGUS22026-09-01 23:40:1927.69753-82.41693339°22km/h12629m4.4m/s-53.2°C0%0hPa0V00:00:0000:00:0000:00:00
ARGUS22026-09-01 23:39:5827.69557-82.41695352°42km/h12527m6.4m/s-52.3°C0%0hPa0V00:00:0000:00:0000:00:00
ARGUS22026-09-01 23:39:3827.69393-82.41698355°44km/h12423m3.2m/s-51.5°C0%0hPa0V00:00:0000:00:0000:00:00
ARGUS22026-09-01 23:39:1827.69228-82.4172719°47km/h12330m3.9m/s-50.7°C0%0hPa0V00:00:0000:00:0000:00:00
ARGUS22026-09-01 23:38:5827.69076-82.4175255°33km/h12219m5.0m/s-49.7°C0%0hPa0V00:00:0000:00:0000:00:00
ARGUS22026-09-01 23:38:3727.68942-82.4177535km/h12110m3.8m/s-49.1°C0%0hPa0V00:00:0000:00:0000:00:00
ARGUS22026-09-01 23:38:1627.68809-82.4179215°35km/h12018m5.0m/s-48.4°C0%0hPa0V00:00:0000:00:0000:00:00
ARGUS22026-09-01 23:37:5627.68693-82.41824360°44km/h11930m8.5m/s-47.7°C0%0hPa0V00:00:0000:00:0000:00:00
ARGUS22026-09-01 23:37:3527.68570-82.41871348°31km/h11805m5.3m/s-46.6°C0%0hPa0V00:00:0000:00:0000:00:00
ARGUS22026-09-01 23:37:1527.68483-82.4188823°27km/h11695m5.6m/s-45.6°C0%0hPa0V00:00:0000:00:0000:00:00
ARGUS22026-09-01 23:36:3327.68333-82.42027330°15km/h11460m8.7m/s-43.7°C0%0hPa0V00:00:0000:00:0000:00:00
ARGUS22026-09-01 23:36:1327.68311-82.42039349°13km/h11350m7.8m/s-42.7°C0%0hPa0V00:00:0000:00:0000:00:00
ARGUS22026-09-01 23:35:5227.68271-82.4205414°33km/h11240m3.7m/s-41.7°C0%0hPa0V00:00:0000:00:0000:00:00
ARGUS22026-09-01 23:35:3227.68234-82.4209350°9km/h11109m6.6m/s-40.6°C0%0hPa0V00:00:0000:00:0000:00:00
ARGUS22026-09-01 23:35:1127.68184-82.4211827°27km/h10993m5.4m/s-39.7°C0%0hPa0V00:00:0000:00:0000:00:00
ARGUS22026-09-01 23:34:5127.68118-82.4213281°15km/h10879m7.2m/s-38.7°C0%0hPa0V00:00:0000:00:0000:00:00
ARGUS22026-09-01 23:34:3027.68060-82.42147355°29km/h10757m5.8m/s-37.9°C0%0hPa0V00:00:0000:00:0000:00:00
ARGUS22026-09-01 23:34:1027.67993-82.4217023°18km/h10643m6.4m/s-36.9°C0%0hPa0V00:00:0000:00:0000:00:00
ARGUS22026-09-01 23:33:5027.67940-82.4220146°16km/h10534m6.3m/s-36.0°C0%0hPa0V00:00:0000:00:0000:00:00
ARGUS22026-09-01 23:33:2827.67883-82.42232331°11km/h10421m5.0m/s-35.2°C0%0hPa0V00:00:0000:00:0000:00:00
ARGUS22026-09-01 23:33:0927.67827-82.4226189°22km/h10303m3.8m/s-34.2°C0%0hPa0V00:00:0000:00:0000:00:00
ARGUS22026-09-01 23:32:4827.67772-82.4228476°27km/h10162m5.4m/s-33.1°C0%0hPa0V00:00:0000:00:0000:00:00
ARGUS22026-09-01 23:32:2627.67726-82.4234440°35km/h10026m7.2m/s-31.8°C0%0hPa0V00:00:0000:00:0000:00:00
ARGUS22026-09-01 23:32:0627.67692-82.4237773°20km/h9900m7.9m/s-30.9°C0%0hPa0V00:00:0000:00:0000:00:00
ARGUS22026-09-01 23:31:4527.67651-82.42460343°4km/h9786m4.6m/s-30.3°C0%0hPa0V00:00:0000:00:0000:00:00
ARGUS22026-09-01 23:31:2527.67624-82.4252963°33km/h9678m5.8m/s-29.6°C0%0hPa0V00:00:0000:00:0000:00:00
ARGUS22026-09-01 23:31:0527.67612-82.4266493°27km/h9569m3.5m/s-28.9°C0%0hPa0V00:00:0000:00:0000:00:00
ARGUS22026-09-01 23:30:4227.67545-82.42841116°20km/h9445m5.8m/s-28.4°C0%0hPa0V00:00:0000:00:0000:00:00
ARGUS22026-09-01 23:30:2127.67473-82.4295934°15km/h9300m5.7m/s-27.3°C0%0hPa0V00:00:0000:00:0000:00:00
ARGUS22026-09-01 23:30:0127.67444-82.4305419°27km/h9160m8.5m/s-27.4°C0%0hPa0V00:00:0000:00:0000:00:00
ARGUS22026-09-01 23:29:4127.67415-82.4311450°15km/h9068m3.4m/s-26.8°C0%0hPa0V00:00:0000:00:0000:00:00
ARGUS22026-09-01 23:29:2027.67359-82.43190110°15km/h8978m5.5m/s-26.3°C0%0hPa0V00:00:0000:00:0000:00:00
ARGUS22026-09-01 23:29:0027.67317-82.4324633°18km/h8872m4.2m/s-25.4°C0%0hPa0V00:00:0000:00:0000:00:00
ARGUS22026-09-01 23:28:3927.67273-82.433100km/h8786m3.4m/s-24.7°C0%0hPa0V00:00:0000:00:0000:00:00
ARGUS22026-09-01 23:28:1827.67196-82.4341786°31km/h8683m4.0m/s-23.8°C0%0hPa0V00:00:0000:00:0000:00:00
ARGUS22026-09-01 23:27:5827.67179-82.4347289°20km/h8588m4.8m/s-23.3°C0%0hPa0V00:00:0000:00:0000:00:00
ARGUS22026-09-01 23:27:3827.67125-82.4353844°11km/h8479m4.0m/s-22.8°C0%0hPa0V00:00:0000:00:0000:00:00
ARGUS22026-09-01 23:27:1727.67100-82.43603125°26km/h8378m4.7m/s-21.5°C0%0hPa0V00:00:0000:00:0000:00:00
ARGUS22026-09-01 23:26:5727.67040-82.4372761°27km/h8270m6.7m/s-20.8°C0%0hPa0V00:00:0000:00:0000:00:00
ARGUS22026-09-01 23:26:3627.67017-82.4381091°33km/h8157m4.9m/s-19.9°C0%0hPa0V00:00:0000:00:0000:00:00
ARGUS22026-09-01 23:26:1627.66956-82.4395168°26km/h8053m6.5m/s-18.9°C0%0hPa0V00:00:0000:00:0000:00:00
ARGUS22026-09-01 23:25:5527.66911-82.4406448°29km/h7929m6.2m/s-18.1°C0%0hPa0V00:00:0000:00:0000:00:00
ARGUS22026-09-01 23:25:3027.66813-82.4417817°26km/h7812m5.9m/s-17.5°C0%0hPa0V00:00:0000:00:0000:00:00
ARGUS22026-09-01 23:25:0927.66739-82.4425626°24km/h7712m4.3m/s-16.8°C0%0hPa0V00:00:0000:00:0000:00:00
ARGUS22026-09-01 23:24:4827.66693-82.4428510°24km/h7605m6.1m/s-16.0°C0%0hPa0V00:00:0000:00:0000:00:00
ARGUS22026-09-01 23:24:1827.66616-82.4438286°22km/h7436m6.5m/s-14.7°C0%0hPa0V00:00:0000:00:0000:00:00
ARGUS22026-09-01 23:23:0227.66469-82.44723122°33km/h7027m3.5m/s-12.7°C0%0hPa0V00:00:0000:00:0000:00:00
ARGUS22026-09-01 23:22:3627.66442-82.4481129°16km/h6894m4.7m/s-12.1°C0%0hPa0V00:00:0000:00:0000:00:00
ARGUS22026-09-01 23:22:1527.66418-82.4489329°16km/h6781m4.6m/s-11.6°C0%0hPa0V00:00:0000:00:0000:00:00
ARGUS22026-09-01 23:21:5127.66426-82.44930103°18km/h6658m4.3m/s-11.6°C0%0hPa0V00:00:0000:00:0000:00:00
ARGUS22026-09-01 23:21:2427.66411-82.44987176°13km/h6512m5.6m/s-10.8°C0%0hPa0V00:00:0000:00:0000:00:00
ARGUS22026-09-01 23:20:3627.66463-82.45036310°15km/h6238m5.6m/s-8.4°C0%0hPa0V00:00:0000:00:0000:00:00
ARGUS22026-09-01 23:20:0827.66460-82.44979268°11km/h6108m6.2m/s-7.9°C0%0hPa0V00:00:0000:00:0000:00:00
ARGUS22026-09-01 23:19:4627.66464-82.44918177°18km/h5990m6.7m/s-7.1°C0%0hPa0V00:00:0000:00:0000:00:00
ARGUS22026-09-01 23:19:2527.66467-82.44839231°26km/h5867m4.5m/s-6.5°C0%0hPa0V00:00:0000:00:0000:00:00
ARGUS22026-09-01 23:19:0427.66488-82.44783227°26km/h5762m5.2m/s-6.0°C0%0hPa0V00:00:0000:00:0000:00:00
ARGUS22026-09-01 23:18:4427.66525-82.44716224°22km/h5656m5.6m/s-5.5°C0%0hPa0V00:00:0000:00:0000:00:00
ARGUS22026-09-01 23:18:2327.66558-82.44656216°16km/h5543m5.8m/s-5.1°C0%0hPa0V00:00:0000:00:0000:00:00
ARGUS22026-09-01 23:18:0327.66594-82.44584214°31km/h5427m4.6m/s-4.4°C0%0hPa0V00:00:0000:00:0000:00:00
ARGUS22026-09-01 23:17:4227.66632-82.44508203°22km/h5312m4.5m/s-3.7°C0%0hPa0V00:00:0000:00:0000:00:00
ARGUS22026-09-01 23:17:2127.66639-82.44420261°31km/h5194m4.2m/s-3.0°C0%0hPa0V00:00:0000:00:0000:00:00
ARGUS22026-09-01 23:17:0127.66670-82.44372180°13km/h5086m4.6m/s-2.6°C0%0hPa0V00:00:0000:00:0000:00:00
ARGUS22026-09-01 23:16:3827.66690-82.44301224°13km/h4963m4.5m/s-1.8°C0%0hPa0V00:00:0000:00:0000:00:00
ARGUS22026-09-01 23:13:3227.67124-82.43297203°5km/h3891m6.2m/s4.5°C0%0hPa0V00:00:0000:00:0000:00:00
ARGUS22026-09-01 23:12:1827.67405-82.42887239°40km/h3465m5.3m/s7.6°C0%0hPa0V00:00:0000:00:0000:00:00
ARGUS22026-09-01 23:11:5727.67478-82.42790227°37km/h3351m4.8m/s8.6°C0%0hPa0V00:00:0000:00:0000:00:00
ARGUS22026-09-01 23:11:3627.67591-82.42680205°18km/h3235m5.5m/s8.4°C0%0hPa0V00:00:0000:00:0000:00:00
ARGUS22026-09-01 23:11:1527.67749-82.42567216°49km/h3116m6.7m/s8.8°C0%0hPa0V00:00:0000:00:0000:00:00
ARGUS22026-09-01 23:07:1927.69316-82.41740172°20km/h1886m4.9m/s16.3°C0%0hPa0V00:00:0000:00:0000:00:00
ARGUS22026-09-01 23:06:3527.69549-82.41599208°40km/h1673m4.0m/s0°C0%0hPa0V00:00:0000:00:0000:00:00
ARGUS22026-09-01 23:05:0927.69842-82.412590km/h1259m5.6m/s19.6°C0%0hPa0V00:00:0000:00:0000:00:00


GPX KML Map

© wettersonde.net (DO2JMG) - 2026  -  -